Time;durP1;ratioP1;P1;durP2;ratioP2;P2;SDS_P1;SDS_P2;PMS_P1;PMS_P2;Temp;Humidity;BMP_temperature;BMP_pressure;BME280_temperature;BME280_humidity;BME280_pressure;Samples;Min_cycle;Max_cycle;Signal;HPM_P1;HPM_P2
2023/07/10 00:00:17;;;;;;;12.63;3.97;;;;;;;17.59;57.72;101771.22;4958476;28;20398;-69
2023/07/10 00:02:46;;;;;;;;;;;;;;;17.59;57.77;101766.78;4961727;28;20043;-67
2023/07/10 00:05:18;;;;;;;16.15;4.40;;;;;;;17.64;57.81;101774.44;4964645;28;19960;-66
2023/07/10 00:07:45;;;;;;;11.15;2.60;;;;;;;17.68;57.80;101775.13;4960364;28;20522;-66
2023/07/10 00:10:13;;;;;;;10.52;3.70;;;;;;;17.65;57.67;101792.88;4963262;28;20126;-67
2023/07/10 00:12:40;;;;;;;14.48;5.15;;;;;;;17.44;58.28;101815.16;4963008;28;20042;-67
2023/07/10 00:15:12;;;;;;;16.98;5.30;;;;;;;17.31;59.14;101840.53;4967126;28;20057;-67
2023/07/10 00:17:37;;;;;;;11.80;3.60;;;;;;;17.47;58.18;101853.78;4959913;28;20046;-68
2023/07/10 00:20:12;;;;;;;18.38;4.78;;;;;;;17.22;59.12;101874.44;4966642;28;20034;-68
2023/07/10 00:22:38;;;;;;;23.23;4.60;;;;;;;16.88;60.31;101882.41;4976223;28;20048;-69
2023/07/10 00:25:04;;;;;;;11.35;3.85;;;;;;;17.24;59.27;101880.47;4967626;28;20030;-68
2023/07/10 00:27:29;;;;;;;15.95;4.50;;;;;;;17.13;59.46;101871.41;4962095;28;20548;-68
2023/07/10 00:29:54;;;;;;;15.50;4.93;;;;;;;17.10;59.76;101875.06;4962575;28;20077;-68
2023/07/10 00:32:20;;;;;;;11.55;4.90;;;;;;;16.92;60.26;101881.31;4959072;28;20034;-69
2023/07/10 00:34:46;;;;;;;10.30;3.92;;;;;;;16.86;60.46;101881.63;4961110;28;20041;-69
2023/07/10 00:37:11;;;;;;;10.90;4.03;;;;;;;17.27;59.72;101873.31;4977852;28;20501;-73
2023/07/10 00:39:37;;;;;;;12.88;4.50;;;;;;;17.19;59.95;101876.38;4956039;28;20394;-69
2023/07/10 00:42:24;;;;;;;17.70;4.05;;;;;;;17.29;59.79;101866.19;4961019;28;20435;-68
2023/07/10 00:44:56;;;;;;;9.93;4.47;;;;;;;17.30;59.80;101854.69;4959347;28;20034;-67
2023/07/10 00:47:34;;;;;;;9.07;3.78;;;;;;;17.32;59.42;101831.69;4956631;28;20399;-67
2023/07/10 00:50:13;;;;;;;17.85;3.67;;;;;;;17.20;59.72;101839.31;4968031;28;20049;-66
2023/07/10 00:52:44;;;;;;;6.63;3.28;;;;;;;17.23;59.64;101865.56;4958538;28;20145;-67
2023/07/10 00:55:15;;;;;;;10.10;4.72;;;;;;;17.26;59.72;101843.41;4979558;28;20185;-70
2023/07/10 00:57:42;;;;;;;10.57;3.90;;;;;;;17.18;59.69;101849.13;4977652;28;20101;-70
2023/07/10 01:00:21;;;;;;;9.50;4.15;;;;;;;17.13;60.05;101848.50;4956253;28;20213;-72
2023/07/10 01:02:47;;;;;;;8.40;3.40;;;;;;;17.22;59.77;101834.81;4962271;28;20502;-72
2023/07/10 01:05:13;;;;;;;7.57;3.55;;;;;;;17.23;59.98;101828.59;4966386;28;20026;-72
2023/07/10 01:07:46;;;;;;;8.07;4.30;;;;;;;17.26;59.77;101842.56;4957956;28;20062;-68
2023/07/10 01:10:13;;;;;;;8.57;4.05;;;;;;;17.19;60.01;101849.97;4961613;28;20401;-69
2023/07/10 01:12:40;;;;;;;11.20;4.45;;;;;;;17.16;59.88;101839.56;4970147;28;20049;-68
2023/07/10 01:15:07;;;;;;;9.82;3.92;;;;;;;17.06;60.24;101843.63;4959655;28;20077;-68
2023/07/10 01:17:33;;;;;;;10.43;5.07;;;;;;;17.08;59.95;101824.13;4957576;28;20341;-67
2023/07/10 01:20:02;;;;;;;8.95;4.10;;;;;;;17.01;60.48;101815.66;4958659;28;20317;-68
2023/07/10 01:22:28;;;;;;;10.25;4.68;;;;;;;17.02;59.99;101835.00;4962036;28;20043;-68
2023/07/10 01:24:56;;;;;;;13.93;4.85;;;;;;;16.89;60.44;101857.69;4959925;28;20500;-68
2023/07/10 01:27:22;;;;;;;5.28;4.28;;;;;;;17.02;60.60;101845.56;4957720;28;20038;-65
2023/07/10 01:29:56;;;;;;;10.45;4.60;;;;;;;17.14;59.92;101844.09;4961613;28;20261;-74
2023/07/10 01:32:27;;;;;;;10.60;5.13;;;;;;;17.18;60.07;101856.16;4954277;28;20050;-74
2023/07/10 01:34:58;;;;;;;10.50;5.07;;;;;;;17.22;60.05;101870.94;4973191;28;21630;-74
2023/07/10 01:37:23;;;;;;;9.27;4.78;;;;;;;17.23;60.00;101870.84;4935980;28;20106;-72
2023/07/10 01:39:52;;;;;;;10.57;4.05;;;;;;;17.38;59.81;101863.91;4961118;28;20390;-72
2023/07/10 01:42:18;;;;;;;6.47;3.72;;;;;;;17.44;59.33;101865.38;4944591;28;20129;-68
2023/07/10 01:44:46;;;;;;;13.40;4.47;;;;;;;17.45;59.42;101862.66;4944192;28;20037;-67
2023/07/10 01:47:14;;;;;;;8.65;4.07;;;;;;;17.46;59.54;101845.00;4959445;28;20406;-68
2023/07/10 01:49:43;;;;;;;8.15;4.35;;;;;;;17.34;59.24;101825.38;4954808;28;20083;-68
2023/07/10 01:52:12;;;;;;;7.93;4.13;;;;;;;17.32;59.70;101819.31;4959729;28;20352;-68
2023/07/10 01:54:38;;;;;;;11.98;5.47;;;;;;;17.21;59.66;101809.31;4969016;28;20620;-68
2023/07/10 01:57:05;;;;;;;9.27;5.38;;;;;;;16.99;60.11;101804.31;4959258;28;20523;-69
2023/07/10 01:59:31;;;;;;;10.80;5.45;;;;;;;17.12;59.93;101812.47;4955356;28;20038;-68
2023/07/10 02:02:00;;;;;;;10.88;5.75;;;;;;;16.97;60.23;101813.25;4964486;28;20390;-72
2023/07/10 02:04:26;;;;;;;12.57;5.30;;;;;;;16.98;60.16;101814.97;4949601;28;20101;-71
2023/07/10 02:06:54;;;;;;;19.15;5.70;;;;;;;16.96;60.11;101814.22;4958278;28;20512;-71
2023/07/10 02:09:25;;;;;;;11.55;5.97;;;;;;;16.96;60.17;101824.78;4973433;28;20039;-70
2023/07/10 02:11:51;;;;;;;21.50;7.13;;;;;;;16.97;60.02;101824.66;4941346;28;20038;-69
2023/07/10 02:14:17;;;;;;;14.45;6.47;;;;;;;17.04;60.07;101819.91;4973548;28;20086;-68
2023/07/10 02:16:42;;;;;;;19.27;6.22;;;;;;;17.12;60.02;101814.25;4959376;28;20066;-78
2023/07/10 02:19:08;;;;;;;11.95;5.75;;;;;;;17.10;59.87;101811.69;4963322;28;20084;-71
2023/07/10 02:21:34;;;;;;;12.00;6.80;;;;;;;17.06;59.78;101809.28;4958101;28;20073;-72
2023/07/10 02:24:00;;;;;;;18.55;6.28;;;;;;;17.15;59.78;101809.63;4967973;28;20069;-69
2023/07/10 02:26:27;;;;;;;14.32;6.00;;;;;;;17.07;59.67;101810.97;4959446;28;20034;-69
2023/07/10 02:28:53;;;;;;;10.90;6.05;;;;;;;17.12;59.65;101825.66;4958035;28;20097;-68
2023/07/10 02:31:20;;;;;;;16.60;6.18;;;;;;;17.09;59.84;101820.56;4961185;28;20065;-68
2023/07/10 02:33:46;;;;;;;13.40;6.60;;;;;;;17.28;59.38;101824.84;4954244;28;20042;-68
2023/07/10 02:36:13;;;;;;;12.45;5.93;;;;;;;17.35;59.31;101832.34;4974967;28;20069;-68
2023/07/10 02:38:38;;;;;;;13.48;6.32;;;;;;;17.42;59.51;101828.44;4952122;28;20045;-68
2023/07/10 02:41:03;;;;;;;19.83;6.80;;;;;;;17.44;59.22;101837.13;4960470;28;20034;-66
2023/07/10 02:43:29;;;;;;;9.70;6.03;;;;;;;17.49;59.15;101838.72;4954627;28;20085;-67
2023/07/10 02:45:54;;;;;;;22.15;5.88;;;;;;;17.43;59.51;101834.59;4973635;28;20451;-68
2023/07/10 02:48:20;;;;;;;17.85;7.15;;;;;;;17.37;59.21;101834.91;4955834;28;20039;-67
2023/07/10 02:50:46;;;;;;;17.92;6.10;;;;;;;17.38;59.35;101834.84;4953717;28;20031;-68
2023/07/10 02:53:12;;;;;;;24.40;7.72;;;;;;;17.39;59.49;101827.78;4957655;28;20338;-67
2023/07/10 02:55:38;;;;;;;17.73;6.78;;;;;;;17.47;59.50;101836.16;4957359;28;20311;-67
2023/07/10 02:58:04;;;;;;;13.95;6.80;;;;;;;17.43;59.42;101839.88;4946549;28;20038;-67
2023/07/10 03:00:30;;;;;;;14.25;5.80;;;;;;;17.56;59.50;101846.25;4958595;28;20893;-68
2023/07/10 03:02:56;;;;;;;20.95;7.13;;;;;;;17.54;59.09;101839.34;4977269;28;20047;-67
2023/07/10 03:05:22;;;;;;;14.95;6.30;;;;;;;17.54;59.51;101836.69;4974771;28;20045;-67
2023/07/10 03:07:48;;;;;;;14.13;6.65;;;;;;;17.60;58.99;101837.22;4965058;28;20023;-67
2023/07/10 03:10:15;;;;;;;17.30;5.90;;;;;;;17.59;58.82;101838.13;4967690;28;20230;-67
2023/07/10 03:12:40;;;;;;;16.27;5.57;;;;;;;17.45;58.86;101838.03;4966866;28;20203;-68
2023/07/10 03:15:06;;;;;;;15.23;6.20;;;;;;;17.53;59.14;101851.69;4980173;28;20156;-68
2023/07/10 03:17:32;;;;;;;18.13;5.75;;;;;;;17.44;59.51;101854.78;4962473;28;20045;-68
2023/07/10 03:19:58;;;;;;;17.60;5.57;;;;;;;17.47;59.17;101852.00;4962282;28;20091;-67
2023/07/10 03:22:24;;;;;;;13.02;4.85;;;;;;;17.58;58.93;101846.16;4959063;28;20030;-68
2023/07/10 03:24:54;;;;;;;19.40;7.45;;;;;;;17.57;59.08;101849.75;4958937;28;20039;-70
2023/07/10 03:27:19;;;;;;;16.38;6.38;;;;;;;17.48;58.72;101845.81;4975871;28;20155;-71
2023/07/10 03:29:45;;;;;;;10.98;5.20;;;;;;;17.37;59.43;101845.50;4960670;28;20107;-66
2023/07/10 03:32:10;;;;;;;14.05;5.15;;;;;;;17.51;58.83;101842.97;4961956;28;20224;-68
2023/07/10 03:34:36;;;;;;;11.93;4.57;;;;;;;17.33;59.41;101836.88;4958673;28;20630;-68
2023/07/10 03:37:02;;;;;;;16.52;5.68;;;;;;;17.21;59.71;101841.03;4964580;28;20031;-68
2023/07/10 03:39:28;;;;;;;12.68;4.70;;;;;;;17.28;59.22;101846.00;4959386;28;20043;-68
2023/07/10 03:41:53;;;;;;;20.33;5.72;;;;;;;17.28;59.28;101856.56;4961239;28;20445;-68
2023/07/10 03:44:19;;;;;;;12.20;4.43;;;;;;;17.28;59.18;101846.00;4959816;28;20038;-69
2023/07/10 03:46:44;;;;;;;17.73;5.82;;;;;;;17.34;59.30;101851.81;4962823;28;20109;-69
2023/07/10 03:49:10;;;;;;;18.65;5.68;;;;;;;17.30;59.50;101849.41;4961877;28;20512;-70
2023/07/10 03:51:35;;;;;;;13.15;4.20;;;;;;;17.38;58.95;101847.19;4959370;28;20030;-69
2023/07/10 03:54:01;;;;;;;10.32;3.40;;;;;;;17.52;58.73;101844.69;4961223;28;20142;-70
2023/07/10 03:56:26;;;;;;;7.57;4.03;;;;;;;17.60;58.58;101857.50;4960472;28;20035;-69
2023/07/10 03:58:52;;;;;;;10.60;4.43;;;;;;;17.64;58.52;101859.88;4957069;28;20059;-69
2023/07/10 04:01:17;;;;;;;10.23;4.70;;;;;;;17.63;58.64;101855.53;4959491;28;20092;-69
2023/07/10 04:03:43;;;;;;;16.15;4.03;;;;;;;17.67;58.19;101855.38;4959107;28;20074;-70
2023/07/10 04:06:15;;;;;;;8.40;4.15;;;;;;;17.60;58.43;101847.78;4975730;28;20038;-69
2023/07/10 04:08:41;;;;;;;16.20;4.28;;;;;;;17.71;58.22;101848.97;4942059;28;20053;-69
2023/07/10 04:11:12;;;;;;;12.23;5.35;;;;;;;17.67;58.04;101843.03;4962134;28;20066;-69
2023/07/10 04:13:38;;;;;;;7.35;4.68;;;;;;;17.74;58.09;101846.16;4950986;28;20870;-69
2023/07/10 04:16:06;;;;;;;13.23;5.13;;;;;;;17.70;58.25;101855.22;4961476;28;20466;-69
2023/07/10 04:18:36;;;;;;;15.77;5.28;;;;;;;17.67;58.27;101858.00;4959872;28;20046;-68
2023/07/10 04:21:06;;;;;;;15.20;5.18;;;;;;;17.68;58.12;101846.50;4963913;28;20448;-68
2023/07/10 04:23:32;;;;;;;9.70;4.75;;;;;;;17.59;58.17;101848.72;4956835;28;20582;-68
2023/07/10 04:25:57;;;;;;;8.50;4.60;;;;;;;17.72;58.06;101851.56;4956835;28;20026;-68
2023/07/10 04:28:23;;;;;;;10.75;4.18;;;;;;;17.84;57.73;101855.28;4974195;28;20201;-67
2023/07/10 04:30:48;;;;;;;17.25;5.38;;;;;;;17.83;57.46;101865.03;4959442;28;20372;-67
2023/07/10 04:33:15;;;;;;;16.33;4.80;;;;;;;17.75;57.65;101858.44;4964030;28;20397;-65
2023/07/10 04:35:42;;;;;;;16.30;5.15;;;;;;;17.78;57.33;101860.91;4959667;28;20061;-67
2023/07/10 04:38:07;;;;;;;8.63;5.88;;;;;;;17.58;57.75;101864.66;4960133;28;20077;-66
2023/07/10 04:40:33;;;;;;;15.90;5.05;;;;;;;17.59;57.85;101871.66;4961613;28;20331;-70
2023/07/10 04:43:02;;;;;;;15.20;5.72;;;;;;;17.48;58.07;101868.75;4963279;28;20046;-68
2023/07/10 04:45:27;;;;;;;15.15;5.68;;;;;;;16.96;59.39;101878.44;4959277;28;20523;-70
2023/07/10 04:47:53;;;;;;;13.02;6.03;;;;;;;16.65;60.14;101865.91;4961913;28;20042;-69
2023/07/10 04:50:18;;;;;;;18.92;6.20;;;;;;;16.65;59.94;101839.50;4960435;28;20585;-68
2023/07/10 04:52:44;;;;;;;7.75;5.32;;;;;;;16.73;59.46;101803.03;4957528;28;20731;-70
2023/07/10 04:55:09;;;;;;;12.70;5.85;;;;;;;16.61;59.75;101832.66;4977165;28;20047;-68
2023/07/10 04:57:34;;;;;;;11.43;5.50;;;;;;;16.76;59.76;101860.13;4960642;28;20473;-65
2023/07/10 05:00:00;;;;;;;13.70;6.85;;;;;;;16.44;60.62;101877.50;4960339;28;20046;-70
2023/07/10 05:02:26;;;;;;;12.13;5.95;;;;;;;16.66;59.81;101869.38;4960694;28;20121;-69
2023/07/10 05:04:51;;;;;;;12.93;6.13;;;;;;;16.45;60.08;101866.03;4944179;28;20608;-70
2023/07/10 05:07:17;;;;;;;13.25;6.68;;;;;;;16.52;59.73;101875.34;4964762;28;20027;-71
2023/07/10 05:09:42;;;;;;;10.35;6.13;;;;;;;16.67;59.51;101868.47;4962766;28;20275;-71
2023/07/10 05:12:07;;;;;;;10.88;7.20;;;;;;;16.60;59.45;101870.56;4960029;28;20117;-68
2023/07/10 05:14:33;;;;;;;9.23;6.57;;;;;;;16.82;59.43;101871.22;4958097;28;20046;-66
2023/07/10 05:16:58;;;;;;;10.55;6.38;;;;;;;16.92;59.02;101865.47;4964535;28;20421;-67
2023/07/10 05:19:24;;;;;;;8.88;6.22;;;;;;;16.87;58.70;101860.44;4957584;28;20046;-67
2023/07/10 05:21:49;;;;;;;11.73;6.45;;;;;;;16.42;59.39;101859.97;4960182;28;20041;-69
2023/07/10 05:24:15;;;;;;;11.20;6.43;;;;;;;16.67;59.46;101868.47;4958723;28;20322;-67
2023/07/10 05:26:40;;;;;;;11.48;6.25;;;;;;;17.30;58.42;101870.53;4958503;28;20037;-68
2023/07/10 05:29:06;;;;;;;12.27;6.28;;;;;;;17.64;56.68;101862.53;4963633;28;20043;-72
2023/07/10 05:31:31;;;;;;;10.32;5.65;;;;;;;17.68;56.70;101859.72;4964315;28;20030;-68
2023/07/10 05:33:57;;;;;;;9.43;5.72;;;;;;;18.24;56.44;101864.53;4972992;28;20041;-70
2023/07/10 05:36:23;;;;;;;13.00;7.03;;;;;;;18.66;55.74;101870.06;4957137;28;20038;-67
2023/07/10 05:38:49;;;;;;;11.52;6.35;;;;;;;19.62;51.72;101866.06;4958708;28;20520;-69
2023/07/10 05:41:16;;;;;;;9.15;5.30;;;;;;;19.23;52.39;101870.22;4960426;28;20031;-69
2023/07/10 05:43:41;;;;;;;10.32;5.38;;;;;;;18.83;53.65;101885.81;4960808;28;20038;-69
2023/07/10 05:46:07;;;;;;;8.15;5.90;;;;;;;18.46;54.13;101881.81;4956069;28;20038;-69
2023/07/10 05:48:33;;;;;;;14.13;6.22;;;;;;;18.23;55.18;101884.00;4964962;28;20041;-70
2023/07/10 05:50:58;;;;;;;13.77;5.90;;;;;;;17.89;55.66;101887.63;4965945;28;20589;-69
2023/07/10 05:53:25;;;;;;;10.13;5.97;;;;;;;17.82;55.81;101891.53;4957388;28;20512;-70
2023/07/10 05:55:52;;;;;;;9.20;5.15;;;;;;;17.52;55.78;101896.72;4955506;28;20034;-70
2023/07/10 05:58:19;;;;;;;7.38;4.70;;;;;;;17.73;56.01;101892.06;4958676;28;20038;-69
2023/07/10 06:00:48;;;;;;;10.32;5.20;;;;;;;17.55;55.95;101897.38;4960887;28;20045;-69
2023/07/10 06:03:17;;;;;;;10.18;4.85;;;;;;;17.79;56.11;101899.66;4959999;28;20035;-70
2023/07/10 06:05:51;;;;;;;6.55;4.78;;;;;;;17.57;56.25;101899.97;4960811;28;20117;-69
2023/07/10 06:08:19;;;;;;;9.98;3.58;;;;;;;17.60;55.87;101894.50;4957044;28;20043;-68
2023/07/10 06:10:45;;;;;;;11.32;5.05;;;;;;;17.01;56.95;101891.41;4957478;28;20031;-68
2023/07/10 06:13:11;;;;;;;5.47;4.63;;;;;;;17.32;55.99;101901.22;4956909;28;20193;-67
2023/07/10 06:15:40;;;;;;;10.70;4.53;;;;;;;17.51;56.19;101901.13;4956991;28;20132;-66
2023/07/10 06:18:06;;;;;;;11.73;4.00;;;;;;;17.31;56.24;101901.28;4955651;28;20114;-68
2023/07/10 06:20:31;;;;;;;12.30;3.55;;;;;;;17.58;55.98;101907.81;4962257;28;20133;-68
2023/07/10 06:22:57;;;;;;;7.20;4.18;;;;;;;17.91;55.69;101909.56;4957133;28;20059;-71
2023/07/10 06:25:22;;;;;;;5.05;3.70;;;;;;;18.31;55.07;101906.50;4957226;28;20565;-67
2023/07/10 06:27:48;;;;;;;6.38;3.72;;;;;;;18.43;53.98;101905.81;4957987;28;20042;-70
2023/07/10 06:30:14;;;;;;;6.45;3.50;;;;;;;18.69;53.58;101907.78;4975270;28;20085;-70
2023/07/10 06:32:40;;;;;;;10.23;4.25;;;;;;;18.75;53.11;101901.31;4961527;28;20050;-71
2023/07/10 06:35:05;;;;;;;6.30;3.63;;;;;;;18.84;52.81;101905.22;4960817;28;20328;-69
2023/07/10 06:37:31;;;;;;;5.45;3.30;;;;;;;19.45;50.52;101916.59;4962799;28;20042;-70
2023/07/10 06:40:23;;;;;;;7.35;3.40;;;;;;;19.27;51.07;101918.56;4973035;28;20049;-71
2023/07/10 06:42:49;;;;;;;;;;;;;;;19.23;50.18;101909.97;4957068;28;20057;-71
2023/07/10 06:45:16;;;;;;;5.10;3.38;;;;;;;19.36;49.71;101922.47;4976462;28;20004;-70
2023/07/10 06:47:44;;;;;;;5.85;3.17;;;;;;;19.26;50.69;101923.03;4977269;28;20054;-68
2023/07/10 06:50:13;;;;;;;6.53;3.10;;;;;;;19.22;51.13;101920.66;4957144;28;20112;-70
2023/07/10 06:52:41;;;;;;;6.55;3.58;;;;;;;18.98;51.04;101909.72;4959052;28;20034;-70
2023/07/10 06:55:10;;;;;;;5.30;2.25;;;;;;;19.22;50.17;101908.25;4958184;28;20050;-70
2023/07/10 06:57:35;;;;;;;4.30;2.53;;;;;;;19.77;49.14;101905.81;4958305;28;20601;-69
2023/07/10 07:00:02;;;;;;;5.53;2.25;;;;;;;20.94;45.93;101907.91;4957273;28;20042;-70
2023/07/10 07:02:30;;;;;;;7.30;2.75;;;;;;;21.23;45.96;101905.06;4960255;28;20027;-69
2023/07/10 07:04:55;;;;;;;2.42;1.83;;;;;;;21.88;45.04;101912.00;4956833;28;20046;-70
2023/07/10 07:07:21;;;;;;;6.78;2.38;;;;;;;23.10;44.39;101908.38;4975501;28;20364;-70
2023/07/10 07:09:47;;;;;;;11.48;2.35;;;;;;;24.57;39.32;101912.59;4957860;28;20112;-70
2023/07/10 07:12:12;;;;;;;4.07;1.92;;;;;;;23.55;40.12;101911.09;4962072;28;20058;-70
2023/07/10 07:14:38;;;;;;;6.20;2.05;;;;;;;22.32;42.20;101907.09;4948422;28;20479;-70
2023/07/10 07:17:05;;;;;;;2.25;1.30;;;;;;;21.09;44.15;101910.50;4965924;28;20030;-69
2023/07/10 07:19:33;;;;;;;3.40;1.95;;;;;;;20.68;45.84;101908.78;4959615;28;20217;-69
2023/07/10 07:22:00;;;;;;;5.32;1.60;;;;;;;21.12;45.93;101907.59;4961085;28;20123;-70
2023/07/10 07:24:29;;;;;;;7.63;1.38;;;;;;;21.73;44.26;101899.81;4974702;28;20512;-71
2023/07/10 07:26:54;;;;;;;8.57;1.35;;;;;;;21.90;43.61;101911.91;4958177;28;20319;-68
2023/07/10 07:29:20;;;;;;;2.25;1.33;;;;;;;21.25;44.45;101923.56;4947105;28;20545;-69
2023/07/10 07:31:49;;;;;;;3.25;1.10;;;;;;;20.60;45.27;101927.06;4959295;28;20078;-69
2023/07/10 07:34:15;;;;;;;3.00;1.30;;;;;;;20.49;45.70;101914.47;4974557;28;20041;-69
2023/07/10 07:36:40;;;;;;;8.45;1.40;;;;;;;20.52;45.98;101920.41;4973317;28;20039;-69
2023/07/10 07:39:05;;;;;;;3.95;1.42;;;;;;;20.81;46.67;101917.63;4958228;28;20038;-69
2023/07/10 07:41:32;;;;;;;4.20;1.27;;;;;;;20.46;45.97;101925.28;4974407;28;20090;-68
2023/07/10 07:43:59;;;;;;;3.28;1.27;;;;;;;20.26;46.59;101929.22;4970070;28;20046;-70
2023/07/10 07:46:25;;;;;;;3.30;1.02;;;;;;;19.71;47.32;101928.28;4975723;28;20069;-70
2023/07/10 07:48:50;;;;;;;5.43;1.23;;;;;;;20.40;48.60;101923.91;4964446;28;20087;-70
2023/07/10 07:51:16;;;;;;;3.78;0.80;;;;;;;20.91;45.20;101921.41;4959668;28;20042;-72
2023/07/10 07:53:45;;;;;;;2.17;1.05;;;;;;;23.87;39.13;101926.38;4961302;28;20053;-69
2023/07/10 07:56:10;;;;;;;4.43;0.93;;;;;;;25.88;36.40;101923.56;4973904;28;20482;-70
2023/07/10 07:58:36;;;;;;;3.17;0.70;;;;;;;25.23;36.37;101922.19;4960609;28;20409;-70
2023/07/10 08:01:02;;;;;;;5.43;0.82;;;;;;;25.80;33.66;101926.09;4959280;28;20332;-70
2023/07/10 08:03:29;;;;;;;2.40;0.60;;;;;;;27.20;32.06;101931.22;4959226;28;20038;-70
2023/07/10 08:05:54;;;;;;;3.05;0.68;;;;;;;28.75;30.11;101927.63;4968675;28;20125;-70
2023/07/10 08:08:21;;;;;;;2.17;0.70;;;;;;;28.16;30.04;101923.72;4957875;28;20049;-71
2023/07/10 08:10:49;;;;;;;2.13;0.35;;;;;;;26.22;33.84;101917.03;4958380;28;20551;-70
2023/07/10 08:13:17;;;;;;;4.07;0.40;;;;;;;25.15;35.66;101919.31;4973348;28;20107;-70
2023/07/10 08:15:44;;;;;;;4.03;0.50;;;;;;;23.90;35.60;101924.31;4958010;28;20073;-70
2023/07/10 08:18:09;;;;;;;1.65;0.57;;;;;;;24.41;36.42;101925.47;4959709;28;20027;-70
2023/07/10 08:20:36;;;;;;;4.32;0.47;;;;;;;25.96;32.25;101916.69;4954893;28;20057;-70
2023/07/10 08:23:03;;;;;;;3.30;0.40;;;;;;;25.98;31.13;101920.94;4960745;28;20653;-71
2023/07/10 08:25:30;;;;;;;2.83;0.47;;;;;;;27.05;31.07;101929.00;4956567;28;20041;-70
2023/07/10 08:27:59;;;;;;;2.15;0.30;;;;;;;28.24;28.34;101921.13;4959229;28;20698;-70
2023/07/10 08:30:26;;;;;;;3.78;0.40;;;;;;;28.96;27.87;101916.50;4969344;28;20034;-71
2023/07/10 08:32:54;;;;;;;2.10;0.85;;;;;;;29.49;26.26;101916.47;4957672;28;20034;-70
2023/07/10 08:35:21;;;;;;;3.33;0.47;;;;;;;29.43;25.63;101926.03;4954818;28;20630;-70
2023/07/10 08:37:48;;;;;;;3.50;0.50;;;;;;;30.12;26.47;101923.25;4959914;28;20397;-70
2023/07/10 08:40:26;;;;;;;4.95;1.40;;;;;;;30.63;24.40;101924.00;4955623;28;20073;-70
2023/07/10 08:42:52;;;;;;;2.50;0.40;;;;;;;30.56;23.38;101920.28;4974592;28;20285;-71
2023/07/10 08:45:31;;;;;;;4.78;0.68;;;;;;;29.52;23.75;101922.34;4953687;28;20094;-70
2023/07/10 08:48:06;;;;;;;3.05;0.50;;;;;;;29.57;24.35;101914.66;4959521;28;20479;-71
2023/07/10 08:50:31;;;;;;;1.10;0.35;;;;;;;30.23;24.89;101919.41;4935876;28;20058;-69
2023/07/10 08:53:11;;;;;;;2.88;0.40;;;;;;;29.13;25.85;101930.09;4937965;28;20030;-70
2023/07/10 08:56:02;;;;;;;5.03;0.60;;;;;;;29.30;26.62;101928.31;4934051;28;20131;-70
2023/07/10 08:58:33;;;;;;;4.13;0.50;;;;;;;29.70;26.31;101924.97;4934347;28;20046;-71
2023/07/10 09:01:02;;;;;;;1.25;0.28;;;;;;;28.29;25.86;101929.56;4938585;28;20043;-71
2023/07/10 09:03:37;;;;;;;2.30;0.45;;;;;;;28.53;27.60;101928.09;4934707;28;20050;-71
2023/07/10 09:06:03;;;;;;;0.63;0.20;;;;;;;29.30;25.22;101925.63;4936711;28;20537;-70
2023/07/10 09:08:32;;;;;;;3.10;0.63;;;;;;;29.21;26.67;101918.53;4916427;28;20489;-71
2023/07/10 09:11:02;;;;;;;3.05;0.25;;;;;;;30.05;24.59;101925.75;4936974;28;20031;-70
2023/07/10 09:13:42;;;;;;;6.22;0.30;;;;;;;29.49;24.72;101920.00;4936705;28;20497;-71
2023/07/10 09:16:19;;;;;;;3.88;1.08;;;;;;;28.91;25.60;101931.44;4935005;28;20027;-69
2023/07/10 09:19:05;;;;;;;2.55;0.38;;;;;;;29.64;24.31;101932.88;4926463;28;20146;-71
2023/07/10 09:21:40;;;;;;;4.78;0.60;;;;;;;28.91;25.43;101923.38;4969010;28;20126;-69
2023/07/10 09:24:21;;;;;;;6.25;0.65;;;;;;;28.83;25.88;101931.38;4948353;28;20676;-69
2023/07/10 09:26:48;;;;;;;3.28;0.43;;;;;;;27.47;27.50;101936.66;4936417;28;20062;-69
2023/07/10 09:29:14;;;;;;;4.25;0.73;;;;;;;27.97;26.43;101932.75;4942740;28;20077;-70
2023/07/10 09:31:53;;;;;;;5.05;0.40;;;;;;;28.80;25.66;101939.78;4954220;28;20038;-70
2023/07/10 09:34:43;;;;;;;3.85;0.50;;;;;;;28.79;26.55;101938.06;4952011;28;20049;-71
2023/07/10 09:37:12;;;;;;;3.03;1.20;;;;;;;27.90;27.66;101940.56;4953369;28;20398;-72
2023/07/10 09:39:39;;;;;;;2.72;0.35;;;;;;;27.50;27.27;101936.34;4941338;28;20454;-69
2023/07/10 09:42:11;;;;;;;4.53;0.40;;;;;;;27.90;26.78;101934.34;4942566;28;20031;-71
2023/07/10 09:44:45;;;;;;;2.45;0.30;;;;;;;26.31;28.03;101928.75;4943293;28;20051;-70
2023/07/10 09:47:16;;;;;;;2.55;0.40;;;;;;;26.50;28.78;101940.31;4953305;28;20471;-69
2023/07/10 09:49:51;;;;;;;4.03;0.80;;;;;;;26.66;28.93;101942.47;4953948;28;20047;-70
2023/07/10 09:52:31;;;;;;;2.30;0.50;;;;;;;26.28;29.27;101948.63;4952097;28;20042;-70
2023/07/10 09:55:24;;;;;;;9.27;0.35;;;;;;;25.28;27.98;101945.84;4953575;28;20320;-71
2023/07/10 09:57:53;;;;;;;3.05;0.30;;;;;;;25.57;29.82;101949.53;4951599;28;20038;-70
2023/07/10 10:00:20;;;;;;;2.00;0.43;;;;;;;26.19;29.46;101955.66;4951869;28;20398;-70
2023/07/10 10:02:49;;;;;;;2.65;0.50;;;;;;;26.16;28.84;101953.28;4954247;28;20037;-68
2023/07/10 10:05:19;;;;;;;4.47;0.90;;;;;;;24.53;30.94;101967.25;4956796;28;20050;-69
2023/07/10 10:07:48;;;;;;;4.70;0.32;;;;;;;24.81;31.14;101959.59;4957350;28;20142;-69
2023/07/10 10:10:26;;;;;;;0.93;0.60;;;;;;;25.34;29.92;101962.22;4960609;28;20141;-71
2023/07/10 10:13:15;;;;;;;2.47;0.20;;;;;;;25.86;29.36;101960.34;4958409;28;21010;-70
2023/07/10 10:15:48;;;;;;;5.03;0.57;;;;;;;25.39;29.39;101959.16;4957135;28;20133;-73
2023/07/10 10:18:28;;;;;;;5.00;0.30;;;;;;;26.36;28.39;101959.50;4957402;28;20039;-69
2023/07/10 10:20:55;;;;;;;2.42;0.20;;;;;;;25.94;29.28;101958.84;4957891;28;20030;-69
2023/07/10 10:23:38;;;;;;;1.55;0.30;;;;;;;25.04;31.22;101966.56;4956535;28;20045;-70
2023/07/10 10:26:20;;;;;;;1.77;0.40;;;;;;;25.23;29.72;101960.47;4960254;28;20030;-69
2023/07/10 10:29:26;;;;;;;1.77;0.50;;;;;;;25.20;30.11;101955.41;4957585;28;20076;-70
2023/07/10 10:32:07;;;;;;;1.85;0.57;;;;;;;24.00;32.79;101961.78;4960584;28;20575;-70
2023/07/10 10:34:38;;;;;;;;;;;;;;;24.16;32.46;101970.25;4948723;28;20093;-72
2023/07/10 10:37:32;;;;;;;3.10;0.68;;;;;;;24.63;30.65;101962.84;4961471;28;20009;-71
2023/07/10 10:40:03;;;;;;;4.80;0.28;;;;;;;25.47;29.50;101962.84;4974112;28;20061;-69
2023/07/10 10:42:49;;;;;;;5.85;1.10;;;;;;;25.30;28.02;101955.44;4955024;28;20413;-68
2023/07/10 10:45:28;;;;;;;1.95;0.40;;;;;;;25.72;28.09;101958.06;4960118;28;20086;-71
2023/07/10 10:48:16;;;;;;;3.72;0.40;;;;;;;26.10;27.33;101964.53;4958390;28;20042;-71
2023/07/10 10:50:56;;;;;;;7.18;0.45;;;;;;;25.66;28.40;101961.28;4933752;28;20494;-71
2023/07/10 10:53:33;;;;;;;5.38;0.40;;;;;;;24.57;28.56;101967.84;4958002;28;20069;-71
2023/07/10 10:56:20;;;;;;;4.68;0.50;;;;;;;24.65;30.75;101966.22;4959863;28;20035;-69
2023/07/10 10:58:48;;;;;;;1.10;0.20;;;;;;;24.58;29.68;101965.03;4959797;28;20524;-70
2023/07/10 11:01:35;;;;;;;1.20;0.13;;;;;;;24.72;30.22;101966.56;4962780;28;20038;-70
2023/07/10 11:04:31;;;;;;;2.92;0.25;;;;;;;24.12;30.49;101960.78;4968506;28;20425;-70
2023/07/10 11:07:27;;;;;;;0.82;0.20;;;;;;;25.21;29.25;101958.91;4970203;28;20054;-71
2023/07/10 11:10:04;;;;;;;4.03;1.15;;;;;;;24.77;29.98;101964.38;4964947;28;20896;-71
2023/07/10 11:12:33;;;;;;;1.45;0.43;;;;;;;24.53;29.07;101967.25;4958626;28;20524;-70
2023/07/10 11:15:19;;;;;;;3.67;0.43;;;;;;;23.52;32.11;101972.66;4960034;28;20489;-71
2023/07/10 11:17:50;;;;;;;5.53;0.55;;;;;;;24.93;30.53;101971.94;4961099;28;20041;-70
2023/07/10 11:20:17;;;;;;;1.77;0.40;;;;;;;24.79;30.28;101973.09;4958293;28;20505;-69
2023/07/10 11:22:54;;;;;;;2.63;0.50;;;;;;;25.03;29.31;101975.56;4961010;28;20200;-70
2023/07/10 11:25:39;;;;;;;2.78;0.20;;;;;;;24.98;28.74;101977.78;4957398;28;20197;-71
2023/07/10 11:28:34;;;;;;;2.72;0.20;;;;;;;25.74;30.24;101980.19;4959214;28;20031;-70
2023/07/10 11:31:32;;;;;;;3.38;0.40;;;;;;;25.49;28.55;101970.75;4966990;28;20077;-70